Time;durP1;ratioP1;P1;durP2;ratioP2;P2;SDS_P1;SDS_P2;PMS_P1;PMS_P2;Temp;Humidity;BMP_temperature;BMP_pressure;BME280_temperature;BME280_humidity;BME280_pressure;Samples;Min_cycle;Max_cycle;Signal;HPM_P1;HPM_P2
2022/10/22 00:00:56;;;;;;;6.47;2.60;;;13.50;99.90;;;;;;5052095;28;20225;-54
2022/10/22 00:03:23;;;;;;;4.03;2.07;;;13.50;99.90;;;;;;5052173;28;20259;-56
2022/10/22 00:05:49;;;;;;;6.83;2.30;;;13.50;99.90;;;;;;5051951;28;20242;-55
2022/10/22 00:08:16;;;;;;;3.37;2.13;;;13.50;99.90;;;;;;5051791;28;20197;-57
2022/10/22 00:10:43;;;;;;;9.10;2.67;;;13.50;99.90;;;;;;5051654;28;20248;-58
2022/10/22 00:13:10;;;;;;;5.90;2.53;;;13.50;99.90;;;;;;5052202;28;20202;-55
2022/10/22 00:15:38;;;;;;;7.10;2.07;;;13.50;99.90;;;;;;5051991;28;20710;-56
2022/10/22 00:18:05;;;;;;;9.17;2.87;;;13.50;99.90;;;;;;5051755;28;20283;-57
2022/10/22 00:20:32;;;;;;;7.00;2.70;;;13.50;99.90;;;;;;5051707;28;20230;-55
2022/10/22 00:22:58;;;;;;;5.67;3.30;;;13.50;99.90;;;;;;5051820;28;20202;-56
2022/10/22 00:25:25;;;;;;;10.03;3.43;;;13.60;99.90;;;;;;5051850;28;20272;-56
2022/10/22 00:27:52;;;;;;;10.73;3.50;;;13.60;99.90;;;;;;5051802;28;20619;-57
2022/10/22 00:30:19;;;;;;;8.00;2.93;;;13.70;99.90;;;;;;5051554;28;20237;-58
2022/10/22 00:32:47;;;;;;;7.37;3.37;;;13.70;99.90;;;;;;5051755;28;20205;-57
2022/10/22 00:35:14;;;;;;;5.07;2.77;;;13.80;99.90;;;;;;5051518;28;20206;-57
2022/10/22 00:37:41;;;;;;;6.60;2.80;;;13.80;99.90;;;;;;5051431;28;20225;-55
2022/10/22 00:40:09;;;;;;;5.20;2.90;;;13.80;99.90;;;;;;5051476;28;20225;-58
2022/10/22 00:42:36;;;;;;;5.93;2.80;;;13.80;99.90;;;;;;5051948;28;20209;-57
2022/10/22 00:45:20;;;;;;;6.00;3.10;;;13.80;99.90;;;;;;5051535;28;20205;-53
2022/10/22 00:47:54;;;;;;;6.47;2.83;;;13.80;99.90;;;;;;5051361;28;20672;-56
2022/10/22 00:50:26;;;;;;;5.30;3.00;;;13.80;99.90;;;;;;5051420;28;20234;-56
2022/10/22 00:52:54;;;;;;;7.00;2.57;;;13.80;99.90;;;;;;5051704;28;20206;-58
2022/10/22 00:55:23;;;;;;;4.40;2.60;;;13.80;99.90;;;;;;5051611;28;20255;-58
2022/10/22 00:57:51;;;;;;;6.43;2.97;;;13.80;99.90;;;;;;5050927;28;20221;-59
2022/10/22 01:00:18;;;;;;;6.77;2.90;;;13.80;99.90;;;;;;5051236;28;20249;-57
2022/10/22 01:02:45;;;;;;;4.23;2.77;;;13.80;99.90;;;;;;5051703;28;20259;-58
2022/10/22 01:05:13;;;;;;;6.13;2.70;;;13.70;99.90;;;;;;5051225;28;20209;-56
2022/10/22 01:07:44;;;;;;;5.13;2.90;;;13.80;99.90;;;;;;5051384;28;20255;-56
2022/10/22 01:10:21;;;;;;;6.60;3.50;;;13.70;99.90;;;;;;5051316;28;20287;-54
2022/10/22 01:12:57;;;;;;;5.90;2.60;;;13.70;99.90;;;;;;5051285;28;20627;-58
2022/10/22 01:15:32;;;;;;;9.37;3.17;;;13.70;99.90;;;;;;5051222;28;20741;-56
2022/10/22 01:18:04;;;;;;;4.57;2.70;;;13.70;99.90;;;;;;5051360;28;20225;-58
2022/10/22 01:20:50;;;;;;;9.97;3.30;;;13.70;99.90;;;;;;5051049;28;20283;-58
2022/10/22 01:23:32;;;;;;;5.77;2.80;;;13.70;99.90;;;;;;5052941;28;20788;-51
2022/10/22 01:26:06;;;;;;;7.30;3.30;;;13.70;99.90;;;;;;5054865;28;20213;-57
2022/10/22 01:28:49;;;;;;;8.00;3.17;;;13.70;99.90;;;;;;5054885;28;20799;-54
2022/10/22 01:31:17;;;;;;;10.60;3.20;;;13.80;99.90;;;;;;5054674;28;20279;-58
2022/10/22 01:33:47;;;;;;;6.43;3.23;;;13.80;99.90;;;;;;5054753;28;20209;-58
2022/10/22 01:36:15;;;;;;;9.13;3.53;;;13.80;99.90;;;;;;5054521;28;20668;-58
2022/10/22 01:38:42;;;;;;;5.73;3.07;;;13.80;99.90;;;;;;5054438;28;20777;-53
2022/10/22 01:41:09;;;;;;;10.83;3.10;;;13.80;99.90;;;;;;5054790;28;20264;-57
2022/10/22 01:43:36;;;;;;;12.70;3.40;;;13.80;99.90;;;;;;5054817;28;20256;-58
2022/10/22 01:46:06;;;;;;;10.20;3.70;;;13.80;99.90;;;;;;5054409;28;20283;-58
2022/10/22 01:48:43;;;;;;;7.53;3.47;;;13.90;99.90;;;;;;5054936;28;20220;-57
2022/10/22 01:51:27;;;;;;;8.33;3.53;;;13.90;99.90;;;;;;5054718;28;20573;-52
2022/10/22 01:53:59;;;;;;;6.40;3.53;;;13.90;99.90;;;;;;5054814;28;20221;-56
2022/10/22 01:56:40;;;;;;;13.73;3.53;;;13.90;99.90;;;;;;5054186;28;20205;-54
2022/10/22 01:59:13;;;;;;;7.40;3.43;;;13.90;99.90;;;;;;5054581;28;20206;-54
2022/10/22 02:01:48;;;;;;;9.87;3.43;;;13.90;99.90;;;;;;5054553;28;20614;-54
2022/10/22 02:04:20;;;;;;;5.70;3.17;;;13.90;99.90;;;;;;5054403;28;20201;-52
2022/10/22 02:06:50;;;;;;;5.10;3.13;;;13.90;99.90;;;;;;5054117;28;20209;-56
2022/10/22 02:09:21;;;;;;;6.87;3.40;;;13.90;99.90;;;;;;5054205;28;20691;-54
2022/10/22 02:11:49;;;;;;;7.63;3.43;;;13.90;99.90;;;;;;5054383;28;20205;-58
2022/10/22 02:14:17;;;;;;;6.17;3.20;;;13.90;99.90;;;;;;5054123;28;20210;-55
2022/10/22 02:16:48;;;;;;;7.40;2.83;;;13.90;99.90;;;;;;5053618;28;20722;-55
2022/10/22 02:19:23;;;;;;;12.60;3.47;;;13.90;99.90;;;;;;5054012;28;20251;-55
2022/10/22 02:21:49;;;;;;;11.13;4.00;;;13.80;99.90;;;;;;5053908;28;20624;-53
2022/10/22 02:24:17;;;;;;;6.80;3.40;;;13.80;99.90;;;;;;5054175;28;20206;-57
2022/10/22 02:26:52;;;;;;;10.37;3.97;;;13.80;99.90;;;;;;5053642;28;20236;-57
2022/10/22 02:29:24;;;;;;;7.50;3.10;;;13.80;99.90;;;;;;5053679;28;20253;-58
2022/10/22 02:31:56;;;;;;;4.57;3.43;;;13.80;99.90;;;;;;5053791;28;20259;-56
2022/10/22 02:34:27;;;;;;;6.10;3.50;;;13.80;99.90;;;;;;5053406;28;20271;-54
2022/10/22 02:36:54;;;;;;;10.40;3.87;;;13.80;99.90;;;;;;5053640;28;20263;-57
2022/10/22 02:39:21;;;;;;;7.20;3.83;;;13.80;99.90;;;;;;5053775;28;20209;-54
2022/10/22 02:41:48;;;;;;;10.17;3.70;;;13.80;99.90;;;;;;5053445;28;20934;-55
2022/10/22 02:44:15;;;;;;;9.23;3.27;;;13.80;99.90;;;;;;5053915;28;20235;-53
2022/10/22 02:46:43;;;;;;;6.87;3.37;;;13.80;99.90;;;;;;5053280;28;20572;-51
2022/10/22 02:49:12;;;;;;;11.77;3.30;;;13.80;99.90;;;;;;5053659;28;20205;-53
2022/10/22 02:51:38;;;;;;;10.17;3.83;;;13.80;99.90;;;;;;5053652;28;20213;-54
2022/10/22 02:54:05;;;;;;;5.27;3.53;;;13.80;99.90;;;;;;5053452;28;20214;-53
2022/10/22 02:56:32;;;;;;;9.67;3.60;;;13.80;99.90;;;;;;5052807;28;20206;-57
2022/10/22 02:58:59;;;;;;;5.70;3.30;;;13.80;99.90;;;;;;5053068;28;20878;-56
2022/10/22 03:01:26;;;;;;;7.50;3.57;;;13.80;99.90;;;;;;5053042;28;20272;-53
2022/10/22 03:03:52;;;;;;;7.43;3.83;;;13.80;99.90;;;;;;5053075;28;20206;-53
2022/10/22 03:06:20;;;;;;;7.40;3.80;;;13.80;99.90;;;;;;5052829;28;20206;-57
2022/10/22 03:08:47;;;;;;;7.63;3.80;;;13.80;99.90;;;;;;5053161;28;20635;-58
2022/10/22 03:11:13;;;;;;;12.70;3.67;;;13.90;99.90;;;;;;5053073;28;20225;-56
2022/10/22 03:13:40;;;;;;;7.63;3.60;;;13.90;99.90;;;;;;5052768;28;20580;-54
2022/10/22 03:16:07;;;;;;;8.33;4.13;;;13.90;99.90;;;;;;5052959;28;20209;-57
2022/10/22 03:18:34;;;;;;;7.37;3.57;;;13.90;99.90;;;;;;5052873;28;20283;-57
2022/10/22 03:21:07;;;;;;;9.40;3.80;;;13.90;99.90;;;;;;5053090;28;20225;-51
2022/10/22 03:23:36;;;;;;;7.73;3.73;;;13.90;99.90;;;;;;5052887;28;20214;-55
2022/10/22 03:26:04;;;;;;;9.87;4.40;;;14.00;99.90;;;;;;5052634;28;20205;-54
2022/10/22 03:28:30;;;;;;;13.73;4.03;;;13.90;99.90;;;;;;5052442;28;20271;-53
2022/10/22 03:30:57;;;;;;;7.90;3.80;;;13.90;99.90;;;;;;5052872;28;20226;-54
2022/10/22 03:33:24;;;;;;;10.17;3.87;;;13.90;99.90;;;;;;5052617;28;20267;-56
2022/10/22 03:35:50;;;;;;;9.47;4.00;;;13.90;99.90;;;;;;5052689;28;20212;-53
2022/10/22 03:38:17;;;;;;;12.17;4.23;;;13.90;99.90;;;;;;5052236;28;20218;-55
2022/10/22 03:40:46;;;;;;;7.40;4.07;;;13.90;99.90;;;;;;5052169;28;20751;-58
2022/10/22 03:43:13;;;;;;;10.73;3.90;;;13.90;99.90;;;;;;5052585;28;20209;-55
2022/10/22 03:45:40;;;;;;;6.30;4.27;;;13.90;99.90;;;;;;5051874;28;20210;-56
2022/10/22 03:48:06;;;;;;;8.30;4.40;;;13.90;99.90;;;;;;5052317;28;20198;-57
2022/10/22 03:50:33;;;;;;;7.93;4.20;;;13.90;99.90;;;;;;5052266;28;20229;-55
2022/10/22 03:53:00;;;;;;;9.13;4.10;;;13.90;99.90;;;;;;5052137;28;20260;-55
2022/10/22 03:55:27;;;;;;;11.40;4.73;;;13.80;99.90;;;;;;5051849;28;20676;-56
2022/10/22 03:57:55;;;;;;;6.80;4.20;;;13.80;99.90;;;;;;5052038;28;20324;-54
2022/10/22 04:00:22;;;;;;;8.70;5.57;;;13.80;99.90;;;;;;5052184;28;20283;-58
2022/10/22 04:02:49;;;;;;;8.87;5.43;;;13.90;99.90;;;;;;5051725;28;20259;-57
2022/10/22 04:05:15;;;;;;;8.93;4.63;;;13.90;99.90;;;;;;5052194;28;20248;-53
2022/10/22 04:07:42;;;;;;;9.67;4.87;;;13.90;99.90;;;;;;5052242;28;20271;-56
2022/10/22 04:10:09;;;;;;;13.00;4.93;;;13.90;99.90;;;;;;5051716;28;20575;-54
2022/10/22 04:12:36;;;;;;;6.37;5.33;;;13.90;99.90;;;;;;5051840;28;20672;-53
2022/10/22 04:15:04;;;;;;;9.57;4.63;;;13.90;99.90;;;;;;5051779;28;20619;-54
2022/10/22 04:17:34;;;;;;;8.87;4.23;;;13.90;99.90;;;;;;5051733;28;20260;-59
2022/10/22 04:20:01;;;;;;;8.43;4.40;;;13.80;99.90;;;;;;5051852;28;20221;-56
2022/10/22 04:22:28;;;;;;;11.13;4.53;;;13.80;99.90;;;;;;5051713;28;20255;-57
2022/10/22 04:24:54;;;;;;;7.77;4.70;;;13.80;99.90;;;;;;5051974;28;20214;-53
2022/10/22 04:27:21;;;;;;;8.27;4.87;;;13.80;99.90;;;;;;5051695;28;20205;-54
2022/10/22 04:29:48;;;;;;;5.80;4.53;;;13.80;99.90;;;;;;5051605;28;20230;-55
2022/10/22 04:32:16;;;;;;;8.53;4.70;;;13.70;99.90;;;;;;5051717;28;20746;-55
2022/10/22 04:34:42;;;;;;;7.40;4.63;;;13.70;99.90;;;;;;5051628;28;20278;-53
2022/10/22 04:37:09;;;;;;;11.03;4.63;;;13.70;99.90;;;;;;5051370;28;20205;-58
2022/10/22 04:39:36;;;;;;;9.30;4.73;;;13.70;99.90;;;;;;5050202;28;20229;-56
2022/10/22 04:42:02;;;;;;;8.73;5.07;;;13.70;99.90;;;;;;5051802;28;20205;-54
2022/10/22 04:44:29;;;;;;;8.83;4.80;;;13.70;99.90;;;;;;5051712;28;20259;-58
2022/10/22 04:46:56;;;;;;;10.33;5.23;;;13.70;99.90;;;;;;5051351;28;20213;-56
2022/10/22 04:49:24;;;;;;;8.17;4.93;;;13.70;99.90;;;;;;5051428;28;20198;-56
2022/10/22 04:51:50;;;;;;;8.80;5.10;;;13.70;99.90;;;;;;5051416;28;20263;-58
2022/10/22 04:54:17;;;;;;;12.80;5.43;;;13.70;99.90;;;;;;5051706;28;20214;-57
2022/10/22 04:56:44;;;;;;;5.83;4.53;;;13.70;99.90;;;;;;5052050;28;20417;-58
2022/10/22 04:59:12;;;;;;;9.20;4.63;;;13.60;99.90;;;;;;5055347;28;20268;-57
2022/10/22 05:01:40;;;;;;;10.17;5.17;;;13.60;99.90;;;;;;5055622;28;20292;-56
2022/10/22 05:04:10;;;;;;;15.80;4.83;;;13.60;99.90;;;;;;5055460;28;20205;-58
2022/10/22 05:06:38;;;;;;;8.97;5.10;;;13.60;99.90;;;;;;5055388;28;20611;-58
2022/10/22 05:09:07;;;;;;;9.40;5.30;;;13.70;99.90;;;;;;5055289;28;20201;-55
2022/10/22 05:11:36;;;;;;;10.73;5.03;;;13.70;99.90;;;;;;5055347;28;20616;-57
2022/10/22 05:14:06;;;;;;;11.33;5.20;;;13.70;99.90;;;;;;5055310;28;20206;-58
2022/10/22 05:16:34;;;;;;;9.13;5.43;;;13.70;99.90;;;;;;5055147;28;20213;-56
2022/10/22 05:19:01;;;;;;;8.40;5.33;;;13.70;99.90;;;;;;5054894;28;20230;-58
2022/10/22 05:21:29;;;;;;;10.10;5.43;;;13.70;99.90;;;;;;5055044;28;20740;-58
2022/10/22 05:23:58;;;;;;;10.70;6.07;;;13.70;99.90;;;;;;5055192;28;20616;-57
2022/10/22 05:26:26;;;;;;;11.47;6.00;;;13.80;99.90;;;;;;5055057;28;20212;-56
2022/10/22 05:28:53;;;;;;;9.17;5.50;;;13.80;99.90;;;;;;5054783;28;20220;-58
2022/10/22 05:31:20;;;;;;;14.00;5.60;;;13.80;99.90;;;;;;5054974;28;20229;-57
2022/10/22 05:33:47;;;;;;;11.17;5.27;;;13.90;99.90;;;;;;5054643;28;20745;-56
2022/10/22 05:36:16;;;;;;;8.43;5.07;;;13.90;99.90;;;;;;5054795;28;20206;-57
2022/10/22 05:38:43;;;;;;;8.87;5.50;;;13.80;99.90;;;;;;5054586;28;20263;-58
2022/10/22 05:41:13;;;;;;;8.87;5.30;;;13.80;99.90;;;;;;5054554;28;20221;-58
2022/10/22 05:43:40;;;;;;;9.97;5.27;;;13.80;99.90;;;;;;5054621;28;20256;-58
2022/10/22 05:46:08;;;;;;;9.83;5.43;;;13.80;99.90;;;;;;5054620;28;20275;-58
2022/10/22 05:48:36;;;;;;;10.10;4.90;;;13.80;99.90;;;;;;5054704;28;20209;-57
2022/10/22 05:51:04;;;;;;;11.20;5.03;;;13.80;99.90;;;;;;5054586;28;20283;-56
2022/10/22 05:53:31;;;;;;;8.00;4.57;;;13.80;99.90;;;;;;5054700;28;20292;-56
2022/10/22 05:56:00;;;;;;;9.23;5.13;;;13.80;99.90;;;;;;5054170;28;20236;-58
2022/10/22 05:58:28;;;;;;;8.63;5.13;;;13.70;99.90;;;;;;5054328;28;20320;-56
2022/10/22 06:01:00;;;;;;;10.33;5.47;;;13.80;99.90;;;;;;5054417;28;20232;-58
2022/10/22 06:03:27;;;;;;;13.07;5.37;;;13.70;99.90;;;;;;5054414;28;20259;-58
2022/10/22 06:05:54;;;;;;;16.37;5.30;;;13.70;99.90;;;;;;5054285;28;20304;-58
2022/10/22 06:08:21;;;;;;;9.07;4.90;;;13.70;99.90;;;;;;5053599;28;20201;-57
2022/10/22 06:10:47;;;;;;;11.00;6.20;;;13.70;99.90;;;;;;5054075;28;20221;-57
2022/10/22 06:13:14;;;;;;;9.03;5.33;;;13.80;99.90;;;;;;5054025;28;20255;-58
2022/10/22 06:15:43;;;;;;;8.33;5.30;;;13.70;99.90;;;;;;5054051;28;20201;-57
2022/10/22 06:18:10;;;;;;;9.33;6.17;;;13.70;99.90;;;;;;5053860;28;20559;-58
2022/10/22 06:20:36;;;;;;;11.10;5.13;;;13.70;99.90;;;;;;5053889;28;20229;-58
2022/10/22 06:23:03;;;;;;;7.97;5.60;;;13.70;99.90;;;;;;5054193;28;20213;-55
2022/10/22 06:25:30;;;;;;;8.33;5.07;;;13.70;99.90;;;;;;5053703;28;20617;-52
2022/10/22 06:27:57;;;;;;;13.20;6.03;;;13.60;99.90;;;;;;5053876;28;20205;-57
2022/10/22 06:30:24;;;;;;;11.73;5.70;;;13.70;99.90;;;;;;5053476;28;20287;-56
2022/10/22 06:32:52;;;;;;;9.63;5.30;;;13.70;99.90;;;;;;5053974;28;20668;-58
2022/10/22 06:35:18;;;;;;;8.57;5.30;;;13.70;99.90;;;;;;5053662;28;20623;-52
2022/10/22 06:37:46;;;;;;;10.80;4.97;;;13.70;99.90;;;;;;5053534;28;20745;-56
2022/10/22 06:40:13;;;;;;;11.90;5.67;;;13.70;99.90;;;;;;5053051;28;20233;-53
2022/10/22 06:42:39;;;;;;;8.83;5.53;;;13.70;99.90;;;;;;5053670;28;20265;-56
2022/10/22 06:45:08;;;;;;;7.57;5.10;;;13.70;99.90;;;;;;5053604;28;20255;-55
2022/10/22 06:47:35;;;;;;;9.43;5.77;;;13.70;99.90;;;;;;5053444;28;20263;-54
2022/10/22 06:50:03;;;;;;;12.97;5.80;;;13.80;99.90;;;;;;5053310;28;20229;-54
2022/10/22 06:52:30;;;;;;;13.97;6.27;;;13.80;99.90;;;;;;5053304;28;20209;-52
2022/10/22 06:54:56;;;;;;;14.60;6.00;;;13.90;99.90;;;;;;5053660;28;20210;-57
2022/10/22 06:57:23;;;;;;;11.67;5.87;;;14.00;99.90;;;;;;5053260;28;20626;-51
2022/10/22 06:59:50;;;;;;;7.63;5.30;;;14.10;99.90;;;;;;5053177;28;20240;-50
2022/10/22 07:02:16;;;;;;;11.93;5.07;;;14.20;99.90;;;;;;5053210;28;20742;-55
2022/10/22 07:04:43;;;;;;;9.97;4.93;;;14.30;99.90;;;;;;5052991;28;20236;-55
2022/10/22 07:07:11;;;;;;;17.67;5.43;;;14.30;99.90;;;;;;5052765;28;20205;-53
2022/10/22 07:09:38;;;;;;;5.70;4.53;;;14.40;99.90;;;;;;5053191;28;20230;-52
2022/10/22 07:12:05;;;;;;;10.63;4.23;;;14.40;99.90;;;;;;5053196;28;20388;-54
2022/10/22 07:14:32;;;;;;;5.47;4.00;;;14.40;99.90;;;;;;5053266;28;20232;-56
2022/10/22 07:16:58;;;;;;;5.27;3.40;;;14.30;99.90;;;;;;5052703;28;20205;-58
2022/10/22 07:19:25;;;;;;;10.70;3.87;;;14.30;99.90;;;;;;5052589;28;20221;-58
2022/10/22 07:21:51;;;;;;;8.30;3.83;;;14.30;99.90;;;;;;5051765;28;20210;-56
2022/10/22 07:24:19;;;;;;;8.63;4.23;;;14.30;99.90;;;;;;5052961;28;20213;-57
2022/10/22 07:26:46;;;;;;;7.90;4.43;;;14.30;99.90;;;;;;5052581;28;20283;-56
2022/10/22 07:29:14;;;;;;;7.87;4.07;;;14.30;99.90;;;;;;5052717;28;20217;-57
2022/10/22 07:31:41;;;;;;;7.57;3.63;;;14.30;99.90;;;;;;5053060;28;20624;-57
2022/10/22 07:34:08;;;;;;;5.47;2.87;;;14.30;99.90;;;;;;5052605;28;20209;-58
2022/10/22 07:36:35;;;;;;;7.00;3.70;;;14.40;99.90;;;;;;5052633;28;20259;-51
2022/10/22 07:39:02;;;;;;;9.27;3.50;;;14.50;99.90;;;;;;5052790;28;20229;-57
2022/10/22 07:41:30;;;;;;;7.40;3.13;;;14.50;99.90;;;;;;5052400;28;20230;-57
2022/10/22 07:43:57;;;;;;;5.60;2.90;;;14.60;99.90;;;;;;5052468;28;20351;-57
2022/10/22 07:46:25;;;;;;;7.10;3.03;;;14.70;99.90;;;;;;5052207;28;20218;-53
2022/10/22 07:48:52;;;;;;;4.63;2.87;;;14.80;99.90;;;;;;5052743;28;20202;-58
2022/10/22 07:51:18;;;;;;;9.20;2.50;;;14.90;99.90;;;;;;5052277;28;20229;-55
2022/10/22 07:53:45;;;;;;;7.10;2.47;;;15.00;99.90;;;;;;5052522;28;20240;-54
2022/10/22 07:56:12;;;;;;;6.83;2.50;;;15.20;99.90;;;;;;5051906;28;20263;-62
2022/10/22 07:58:40;;;;;;;5.10;2.23;;;15.30;99.90;;;;;;5052174;28;20296;-63
2022/10/22 08:01:07;;;;;;;7.93;2.73;;;15.40;99.90;;;;;;5051921;28;20240;-63
2022/10/22 08:03:35;;;;;;;5.43;2.60;;;15.50;99.90;;;;;;5051949;28;20738;-63
2022/10/22 08:06:02;;;;;;;5.70;2.40;;;15.50;99.90;;;;;;5052003;28;20296;-56
2022/10/22 08:08:29;;;;;;;5.33;2.43;;;15.50;99.90;;;;;;5051868;28;20690;-56
2022/10/22 08:10:58;;;;;;;7.07;3.00;;;15.50;99.90;;;;;;5051908;28;20316;-56
2022/10/22 08:13:26;;;;;;;7.53;2.83;;;15.40;99.90;;;;;;5052048;28;20209;-58
2022/10/22 08:15:54;;;;;;;5.00;2.30;;;15.40;99.90;;;;;;5051647;28;20205;-59
2022/10/22 08:18:21;;;;;;;6.53;2.57;;;15.40;99.90;;;;;;5051995;28;20676;-56
2022/10/22 08:20:48;;;;;;;7.07;2.37;;;15.50;99.90;;;;;;5051652;28;20708;-55
2022/10/22 08:23:14;;;;;;;5.90;2.67;;;15.60;99.90;;;;;;5051948;28;20256;-56
2022/10/22 08:25:41;;;;;;;5.70;2.13;;;15.70;99.90;;;;;;5051840;28;20206;-55
2022/10/22 08:28:07;;;;;;;7.57;2.93;;;15.80;99.90;;;;;;5051586;28;20205;-56
2022/10/22 08:30:36;;;;;;;9.20;2.77;;;15.80;99.90;;;;;;5051523;28;20773;-58
2022/10/22 08:33:05;;;;;;;5.27;2.23;;;15.90;99.90;;;;;;5051727;28;20248;-56
2022/10/22 08:35:31;;;;;;;13.37;2.80;;;15.90;99.90;;;;;;5051816;28;20804;-56
2022/10/22 08:37:58;;;;;;;6.50;2.10;;;16.00;99.90;;;;;;5051367;28;20209;-57
2022/10/22 08:40:30;;;;;;;5.20;2.10;;;16.00;99.90;;;;;;5051416;28;20268;-56
2022/10/22 08:43:17;;;;;;;8.77;1.97;;;16.00;99.90;;;;;;5051507;28;20218;-54
2022/10/22 08:45:55;;;;;;;7.33;1.90;;;15.90;99.90;;;;;;5051554;28;20259;-56
2022/10/22 08:48:41;;;;;;;4.97;1.90;;;15.90;99.90;;;;;;5049960;28;20221;-52
2022/10/22 08:51:12;;;;;;;10.40;2.10;;;15.80;99.90;;;;;;5051439;28;20767;-56
2022/10/22 08:53:45;;;;;;;4.90;2.00;;;15.80;99.90;;;;;;5051804;28;20213;-56
2022/10/22 08:56:14;;;;;;;4.03;1.50;;;15.70;99.90;;;;;;5051315;28;20812;-56
2022/10/22 08:58:45;;;;;;;5.27;1.87;;;15.70;99.90;;;;;;5051364;28;20206;-53
2022/10/22 09:01:15;;;;;;;5.40;1.77;;;15.70;99.90;;;;;;5051343;28;20603;-56
2022/10/22 09:03:50;;;;;;;6.67;1.73;;;15.60;99.90;;;;;;5051377;28;20205;-56
2022/10/22 09:06:20;;;;;;;11.17;2.60;;;15.60;99.90;;;;;;5051355;28;20265;-58
2022/10/22 09:08:48;;;;;;;3.90;1.70;;;15.50;99.90;;;;;;5051644;28;20213;-53
2022/10/22 09:11:22;;;;;;;9.53;1.70;;;15.50;99.90;;;;;;5051561;28;20291;-58
2022/10/22 09:13:49;;;;;;;8.60;1.80;;;15.50;99.90;;;;;;5051320;28;20212;-57
2022/10/22 09:16:19;;;;;;;6.50;1.60;;;15.60;99.90;;;;;;5051027;28;20205;-58
2022/10/22 09:19:00;;;;;;;8.90;1.80;;;15.60;99.90;;;;;;5051694;28;20551;-57
2022/10/22 09:21:34;;;;;;;7.60;2.20;;;15.70;99.90;;;;;;5051224;28;20252;-56
2022/10/22 09:24:09;;;;;;;7.77;1.60;;;15.80;99.90;;;;;;5051569;28;20205;-57
2022/10/22 09:26:38;;;;;;;9.87;2.13;;;15.80;99.90;;;;;;5050960;28;20699;-58
2022/10/22 09:29:07;;;;;;;5.00;2.13;;;15.80;99.90;;;;;;5051048;28;20699;-58
2022/10/22 09:31:34;;;;;;;6.53;1.60;;;15.70;99.90;;;;;;5051295;28;20210;-57
2022/10/22 09:34:06;;;;;;;4.37;1.40;;;15.80;99.90;;;;;;5051259;28;20227;-56
2022/10/22 09:36:33;;;;;;;2.97;1.50;;;15.80;99.90;;;;;;5050990;28;20209;-56
2022/10/22 09:39:00;;;;;;;4.97;1.50;;;15.80;99.90;;;;;;5051153;28;20202;-59
2022/10/22 09:41:29;;;;;;;7.83;2.20;;;15.90;99.90;;;;;;5050795;28;20299;-59
2022/10/22 09:43:57;;;;;;;8.27;2.00;;;16.00;99.90;;;;;;5052272;28;20206;-57
2022/10/22 09:46:26;;;;;;;6.67;1.73;;;16.00;99.90;;;;;;5054494;28;20209;-54
2022/10/22 09:49:03;;;;;;;9.03;2.13;;;16.10;99.90;;;;;;5054523;28;20205;-57
2022/10/22 09:51:41;;;;;;;6.70;1.87;;;16.10;99.90;;;;;;5054597;28;20253;-59
2022/10/22 09:54:16;;;;;;;7.93;2.27;;;16.20;99.90;;;;;;5054820;28;20553;-56
2022/10/22 09:56:46;;;;;;;5.63;1.90;;;16.10;99.90;;;;;;5054496;28;20205;-58
2022/10/22 09:59:15;;;;;;;10.93;1.60;;;16.10;99.90;;;;;;5054486;28;20213;-58
2022/10/22 10:01:43;;;;;;;4.17;1.73;;;16.00;99.90;;;;;;5054425;28;20206;-58
2022/10/22 10:04:14;;;;;;;10.53;2.63;;;16.00;99.90;;;;;;5054200;28;20730;-56
2022/10/22 10:06:42;;;;;;;10.17;2.13;;;16.00;99.90;;;;;;5045815;28;20248;-60
2022/10/22 10:09:15;;;;;;;6.03;2.20;;;16.00;99.90;;;;;;5053225;28;20622;-62
2022/10/22 10:11:46;;;;;;;5.27;1.70;;;16.00;99.90;;;;;;5054038;28;20209;-63
2022/10/22 10:14:18;;;;;;;6.73;1.90;;;16.00;99.90;;;;;;5053900;28;20890;-60
2022/10/22 10:16:55;;;;;;;4.60;1.60;;;16.00;99.90;;;;;;5053320;28;20214;-61
2022/10/22 10:19:35;;;;;;;8.80;2.07;;;16.00;99.90;;;;;;5053783;28;20628;-60
2022/10/22 10:22:12;;;;;;;6.87;1.67;;;16.00;99.90;;;;;;5053936;28;20263;-66
2022/10/22 10:24:50;;;;;;;5.63;2.10;;;15.90;99.90;;;;;;5053595;28;20212;-60
2022/10/22 10:27:25;;;;;;;6.67;1.93;;;15.90;99.90;;;;;;5053336;28;20774;-62
2022/10/22 10:30:00;;;;;;;4.80;1.57;;;15.90;99.90;;;;;;5053376;28;20229;-62
2022/10/22 10:32:47;;;;;;;5.73;1.53;;;15.90;99.90;;;;;;5053733;28;20251;-60
2022/10/22 10:35:23;;;;;;;5.07;1.37;;;15.90;99.90;;;;;;5053520;28;20296;-61
2022/10/22 10:38:12;;;;;;;5.20;1.27;;;15.90;99.90;;;;;;5053081;28;20212;-61
2022/10/22 10:40:47;;;;;;;3.17;1.40;;;15.90;99.90;;;;;;5053446;28;20647;-61
2022/10/22 10:43:20;;;;;;;3.10;1.43;;;15.90;99.90;;;;;;5053362;28;20201;-60
2022/10/22 10:45:57;;;;;;;6.20;1.40;;;15.90;99.90;;;;;;5053857;28;20611;-60
2022/10/22 10:48:48;;;;;;;5.77;1.97;;;15.90;99.90;;;;;;5053243;28;20385;-61
2022/10/22 10:51:27;;;;;;;6.47;1.30;;;15.80;99.90;;;;;;5053620;28;20317;-62
2022/10/22 10:54:04;;;;;;;7.20;1.73;;;15.90;99.90;;;;;;5053149;28;20201;-62
2022/10/22 10:56:38;;;;;;;7.37;1.47;;;15.90;99.90;;;;;;5052846;28;20198;-60
2022/10/22 10:59:17;;;;;;;5.17;1.57;;;16.00;99.90;;;;;;5052449;28;20691;-60
2022/10/22 11:01:55;;;;;;;3.27;1.07;;;16.10;99.90;;;;;;5053158;28;20226;-59
2022/10/22 11:04:44;;;;;;;4.40;1.47;;;16.00;99.90;;;;;;5052743;28;20938;-59
2022/10/22 11:07:17;;;;;;;7.07;1.20;;;16.10;99.90;;;;;;5052811;28;20753;-60
2022/10/22 11:09:48;;;;;;;2.83;1.30;;;16.10;99.90;;;;;;5052936;28;20637;-60
2022/10/22 11:12:21;;;;;;;7.37;1.60;;;16.20;99.90;;;;;;5053051;28;20210;-61
2022/10/22 11:14:56;;;;;;;4.23;1.20;;;16.20;99.90;;;;;;5052887;28;20206;-62
2022/10/22 11:17:25;;;;;;;5.47;1.30;;;16.20;99.90;;;;;;5052437;28;20209;-62
2022/10/22 11:19:58;;;;;;;6.00;1.00;;;16.20;99.90;;;;;;5052476;28;20287;-62
2022/10/22 11:22:31;;;;;;;6.13;1.60;;;16.30;99.90;;;;;;5052626;28;20582;-59
2022/10/22 11:25:03;;;;;;;3.67;1.10;;;16.40;99.90;;;;;;5052563;28;20206;-58
2022/10/22 11:27:36;;;;;;;7.43;1.40;;;16.40;99.90;;;;;;5051812;28;20213;-62
2022/10/22 11:30:05;;;;;;;4.63;1.27;;;16.40;99.90;;;;;;5052206;28;20320;-57
2022/10/22 11:32:34;;;;;;;11.63;1.27;;;16.40;99.90;;;;;;5052791;28;20206;-59
2022/10/22 11:35:04;;;;;;;4.33;1.37;;;16.40;99.90;;;;;;5052864;28;20209;-60
2022/10/22 11:37:37;;;;;;;4.37;1.20;;;16.50;99.90;;;;;;5052189;28;20210;-59
2022/10/22 11:40:07;;;;;;;5.67;1.57;;;16.40;99.90;;;;;;5052343;28;20256;-58
2022/10/22 11:42:35;;;;;;;5.07;1.10;;;16.50;99.90;;;;;;5052629;28;20692;-59
2022/10/22 11:45:05;;;;;;;3.40;1.20;;;16.50;99.90;;;;;;5052764;28;20243;-60
2022/10/22 11:47:33;;;;;;;5.23;1.33;;;16.50;99.90;;;;;;5052088;28;20263;-56
2022/10/22 11:50:20;;;;;;;4.73;1.10;;;16.50;99.90;;;;;;5052215;28;20233;-57
2022/10/22 11:52:59;;;;;;;5.60;1.23;;;16.50;99.90;;;;;;5052332;28;20605;-55
2022/10/22 11:55:33;;;;;;;1.97;0.90;;;16.50;99.90;;;;;;5052510;28;20205;-59
2022/10/22 11:58:01;;;;;;;3.37;1.00;;;16.50;99.90;;;;;;5052072;28;20210;-57
2022/10/22 12:00:35;;;;;;;4.73;0.80;;;16.60;99.90;;;;;;5052162;28;20221;-60
2022/10/22 12:03:04;;;;;;;4.00;0.83;;;16.60;99.90;;;;;;5052001;28;20212;-59
2022/10/22 12:05:36;;;;;;;9.03;1.00;;;16.50;99.90;;;;;;5052176;28;20210;-59
2022/10/22 12:08:21;;;;;;;4.47;0.97;;;16.40;99.90;;;;;;5051479;28;20624;-58
2022/10/22 12:11:03;;;;;;;2.90;0.90;;;16.40;99.90;;;;;;5051825;28;20272;-57
2022/10/22 12:13:32;;;;;;;3.53;1.30;;;16.40;99.90;;;;;;5051815;28;20208;-55
2022/10/22 12:16:03;;;;;;;5.33;1.10;;;16.40;99.90;;;;;;5051877;28;20205;-59
2022/10/22 12:18:39;;;;;;;3.57;1.17;;;16.30;99.90;;;;;;5051831;28;20213;-60
2022/10/22 12:21:06;;;;;;;2.90;0.97;;;16.30;99.90;;;;;;5052071;28;20601;-60
2022/10/22 12:23:35;;;;;;;6.57;1.17;;;16.30;99.90;;;;;;5051826;28;20213;-60
2022/10/22 12:26:03;;;;;;;5.67;1.20;;;16.30;99.90;;;;;;5051576;28;20206;-60
2022/10/22 12:28:38;;;;;;;5.83;1.23;;;16.40;99.90;;;;;;5051328;28;20695;-59
2022/10/22 12:31:05;;;;;;;3.43;0.73;;;16.40;99.90;;;;;;5051841;28;20594;-59
2022/10/22 12:33:32;;;;;;;7.33;1.00;;;16.40;99.90;;;;;;5051548;28;20210;-60
2022/10/22 12:36:02;;;;;;;4.30;1.03;;;16.50;99.90;;;;;;5051345;28;20292;-60
2022/10/22 12:38:29;;;;;;;3.93;0.83;;;16.50;99.90;;;;;;5051823;28;20675;-59
2022/10/22 12:40:58;;;;;;;4.37;0.97;;;16.40;99.90;;;;;;5051618;28;20874;-60
2022/10/22 12:43:27;;;;;;;2.80;0.80;;;16.50;99.90;;;;;;5051484;28;20260;-59
2022/10/22 12:45:56;;;;;;;3.80;1.30;;;16.50;99.90;;;;;;5051583;28;20205;-60
2022/10/22 12:48:26;;;;;;;9.17;1.57;;;16.50;99.90;;;;;;5051670;28;20271;-59
2022/10/22 12:50:55;;;;;;;6.20;0.97;;;16.70;99.90;;;;;;5051644;28;20644;-55
2022/10/22 12:53:27;;;;;;;4.43;0.73;;;16.70;99.90;;;;;;5051802;28;20205;-58
2022/10/22 12:55:57;;;;;;;5.70;1.30;;;16.60;99.90;;;;;;5051527;28;20247;-59
2022/10/22 12:58:29;;;;;;;4.13;0.90;;;16.70;99.90;;;;;;5051520;28;20252;-60